sensor_id;sensor_type;location;lat;lon;timestamp;P1;durP1;ratioP1;P2;durP2;ratioP2
33108;SDS011;19481;51.118;6.940;2022-12-29T00:02:35;1.50;;;1.40;;
33108;SDS011;19481;51.118;6.940;2022-12-29T00:07:37;1.63;;;1.52;;
33108;SDS011;19481;51.118;6.940;2022-12-29T00:12:40;1.60;;;1.50;;
33108;SDS011;19481;51.118;6.940;2022-12-29T00:17:59;1.30;;;1.30;;
33108;SDS011;19481;51.118;6.940;2022-12-29T00:23:01;1.88;;;1.60;;
33108;SDS011;19481;51.118;6.940;2022-12-29T00:28:21;2.03;;;1.30;;
33108;SDS011;19481;51.118;6.940;2022-12-29T00:33:40;1.30;;;1.20;;
33108;SDS011;19481;51.118;6.940;2022-12-29T00:39:00;1.15;;;1.10;;
33108;SDS011;19481;51.118;6.940;2022-12-29T00:44:23;1.25;;;1.20;;
33108;SDS011;19481;51.118;6.940;2022-12-29T00:49:25;1.08;;;1.02;;
33108;SDS011;19481;51.118;6.940;2022-12-29T00:54:32;1.90;;;1.10;;
33108;SDS011;19481;51.118;6.940;2022-12-29T00:59:37;1.10;;;1.10;;
33108;SDS011;19481;51.118;6.940;2022-12-29T01:04:39;0.90;;;0.90;;
33108;SDS011;19481;51.118;6.940;2022-12-29T01:09:41;1.05;;;1.00;;
33108;SDS011;19481;51.118;6.940;2022-12-29T01:15:01;0.90;;;0.90;;
33108;SDS011;19481;51.118;6.940;2022-12-29T01:20:03;0.88;;;0.75;;
33108;SDS011;19481;51.118;6.940;2022-12-29T01:25:05;0.68;;;0.68;;
33108;SDS011;19481;51.118;6.940;2022-12-29T01:30:09;0.98;;;0.70;;
33108;SDS011;19481;51.118;6.940;2022-12-29T01:35:11;0.50;;;0.50;;
33108;SDS011;19481;51.118;6.940;2022-12-29T01:40:13;0.95;;;0.60;;
33108;SDS011;19481;51.118;6.940;2022-12-29T01:45:16;0.50;;;0.50;;
33108;SDS011;19481;51.118;6.940;2022-12-29T01:50:20;0.60;;;0.60;;
33108;SDS011;19481;51.118;6.940;2022-12-29T01:55:27;3.13;;;0.70;;
33108;SDS011;19481;51.118;6.940;2022-12-29T02:00:33;0.60;;;0.60;;
33108;SDS011;19481;51.118;6.940;2022-12-29T02:05:36;0.60;;;0.60;;
33108;SDS011;19481;51.118;6.940;2022-12-29T02:10:40;0.60;;;0.60;;
33108;SDS011;19481;51.118;6.940;2022-12-29T02:15:48;0.95;;;0.70;;
33108;SDS011;19481;51.118;6.940;2022-12-29T02:26:43;0.77;;;0.70;;
33108;SDS011;19481;51.118;6.940;2022-12-29T02:31:58;0.60;;;0.60;;
33108;SDS011;19481;51.118;6.940;2022-12-29T02:37:02;0.60;;;0.60;;
33108;SDS011;19481;51.118;6.940;2022-12-29T02:42:09;0.70;;;0.70;;
33108;SDS011;19481;51.118;6.940;2022-12-29T02:47:22;2.78;;;0.93;;
33108;SDS011;19481;51.118;6.940;2022-12-29T02:52:30;0.70;;;0.70;;
33108;SDS011;19481;51.118;6.940;2022-12-29T02:57:35;0.93;;;0.80;;
33108;SDS011;19481;51.118;6.940;2022-12-29T03:02:46;0.65;;;0.65;;
33108;SDS011;19481;51.118;6.940;2022-12-29T03:08:10;1.30;;;0.70;;
33108;SDS011;19481;51.118;6.940;2022-12-29T03:13:23;1.02;;;0.70;;
33108;SDS011;19481;51.118;6.940;2022-12-29T03:18:49;0.60;;;0.60;;
33108;SDS011;19481;51.118;6.940;2022-12-29T03:23:56;2.55;;;0.98;;
33108;SDS011;19481;51.118;6.940;2022-12-29T03:28:57;0.70;;;0.70;;
33108;SDS011;19481;51.118;6.940;2022-12-29T03:34:01;0.90;;;0.90;;
33108;SDS011;19481;51.118;6.940;2022-12-29T03:39:06;0.60;;;0.60;;
33108;SDS011;19481;51.118;6.940;2022-12-29T03:44:12;0.90;;;0.80;;
33108;SDS011;19481;51.118;6.940;2022-12-29T03:49:15;0.95;;;0.70;;
33108;SDS011;19481;51.118;6.940;2022-12-29T03:54:17;0.70;;;0.70;;
33108;SDS011;19481;51.118;6.940;2022-12-29T03:59:18;0.68;;;0.68;;
33108;SDS011;19481;51.118;6.940;2022-12-29T04:04:21;0.60;;;0.60;;
33108;SDS011;19481;51.118;6.940;2022-12-29T04:09:23;0.60;;;0.60;;
33108;SDS011;19481;51.118;6.940;2022-12-29T04:14:24;0.75;;;0.70;;
33108;SDS011;19481;51.118;6.940;2022-12-29T04:19:27;2.50;;;0.52;;
33108;SDS011;19481;51.118;6.940;2022-12-29T04:24:29;4.57;;;0.70;;
33108;SDS011;19481;51.118;6.940;2022-12-29T04:29:30;1.23;;;0.70;;
33108;SDS011;19481;51.118;6.940;2022-12-29T04:34:33;0.73;;;0.70;;
33108;SDS011;19481;51.118;6.940;2022-12-29T04:39:35;0.60;;;0.60;;
33108;SDS011;19481;51.118;6.940;2022-12-29T04:44:37;2.30;;;0.75;;
33108;SDS011;19481;51.118;6.940;2022-12-29T04:49:40;0.70;;;0.70;;
33108;SDS011;19481;51.118;6.940;2022-12-29T04:54:41;0.80;;;0.60;;
33108;SDS011;19481;51.118;6.940;2022-12-29T04:59:43;0.88;;;0.60;;
33108;SDS011;19481;51.118;6.940;2022-12-29T05:04:46;0.50;;;0.50;;
33108;SDS011;19481;51.118;6.940;2022-12-29T05:09:47;0.70;;;0.70;;
33108;SDS011;19481;51.118;6.940;2022-12-29T05:14:49;0.82;;;0.60;;
33108;SDS011;19481;51.118;6.940;2022-12-29T05:19:52;0.80;;;0.80;;
33108;SDS011;19481;51.118;6.940;2022-12-29T05:24:54;1.10;;;0.73;;
33108;SDS011;19481;51.118;6.940;2022-12-29T05:29:55;2.75;;;0.70;;
33108;SDS011;19481;51.118;6.940;2022-12-29T05:34:58;0.80;;;0.70;;
33108;SDS011;19481;51.118;6.940;2022-12-29T05:40:00;2.33;;;0.77;;
33108;SDS011;19481;51.118;6.940;2022-12-29T05:45:01;0.68;;;0.60;;
33108;SDS011;19481;51.118;6.940;2022-12-29T05:50:05;1.58;;;0.63;;
33108;SDS011;19481;51.118;6.940;2022-12-29T05:55:07;0.90;;;0.90;;
33108;SDS011;19481;51.118;6.940;2022-12-29T06:00:09;0.60;;;0.60;;
33108;SDS011;19481;51.118;6.940;2022-12-29T06:05:13;0.57;;;0.57;;
33108;SDS011;19481;51.118;6.940;2022-12-29T06:10:15;1.45;;;0.68;;
33108;SDS011;19481;51.118;6.940;2022-12-29T06:15:16;3.03;;;0.95;;
33108;SDS011;19481;51.118;6.940;2022-12-29T06:20:19;0.65;;;0.52;;
33108;SDS011;19481;51.118;6.940;2022-12-29T06:25:21;0.65;;;0.65;;
33108;SDS011;19481;51.118;6.940;2022-12-29T06:30:23;1.33;;;0.57;;
33108;SDS011;19481;51.118;6.940;2022-12-29T06:35:26;1.13;;;0.50;;
33108;SDS011;19481;51.118;6.940;2022-12-29T06:40:28;3.80;;;0.70;;
33108;SDS011;19481;51.118;6.940;2022-12-29T06:45:30;1.92;;;1.00;;
33108;SDS011;19481;51.118;6.940;2022-12-29T06:50:33;0.90;;;0.80;;
33108;SDS011;19481;51.118;6.940;2022-12-29T06:55:35;3.03;;;0.90;;
33108;SDS011;19481;51.118;6.940;2022-12-29T07:00:36;2.00;;;0.90;;
33108;SDS011;19481;51.118;6.940;2022-12-29T07:05:39;1.95;;;0.68;;
33108;SDS011;19481;51.118;6.940;2022-12-29T07:10:41;1.48;;;0.73;;
33108;SDS011;19481;51.118;6.940;2022-12-29T07:15:42;2.40;;;1.05;;
33108;SDS011;19481;51.118;6.940;2022-12-29T07:20:45;1.15;;;0.85;;
33108;SDS011;19481;51.118;6.940;2022-12-29T07:25:47;3.72;;;1.15;;
33108;SDS011;19481;51.118;6.940;2022-12-29T07:30:49;4.20;;;0.90;;
33108;SDS011;19481;51.118;6.940;2022-12-29T07:35:52;1.45;;;0.82;;
33108;SDS011;19481;51.118;6.940;2022-12-29T07:40:56;3.63;;;0.77;;
33108;SDS011;19481;51.118;6.940;2022-12-29T07:45:59;0.80;;;0.80;;
33108;SDS011;19481;51.118;6.940;2022-12-29T07:51:02;2.03;;;0.77;;
33108;SDS011;19481;51.118;6.940;2022-12-29T07:56:04;0.80;;;0.70;;
33108;SDS011;19481;51.118;6.940;2022-12-29T08:01:06;2.45;;;1.20;;
33108;SDS011;19481;51.118;6.940;2022-12-29T08:06:10;1.08;;;0.88;;
33108;SDS011;19481;51.118;6.940;2022-12-29T08:11:12;2.13;;;0.90;;
33108;SDS011;19481;51.118;6.940;2022-12-29T08:16:13;0.70;;;0.70;;
33108;SDS011;19481;51.118;6.940;2022-12-29T08:21:16;5.05;;;1.23;;
33108;SDS011;19481;51.118;6.940;2022-12-29T08:26:18;4.95;;;1.38;;
33108;SDS011;19481;51.118;6.940;2022-12-29T08:31:19;3.08;;;0.82;;
33108;SDS011;19481;51.118;6.940;2022-12-29T08:36:22;2.42;;;0.98;;
33108;SDS011;19481;51.118;6.940;2022-12-29T08:41:24;0.98;;;0.90;;
33108;SDS011;19481;51.118;6.940;2022-12-29T08:46:25;2.67;;;1.00;;
33108;SDS011;19481;51.118;6.940;2022-12-29T08:51:28;1.73;;;1.00;;
33108;SDS011;19481;51.118;6.940;2022-12-29T08:56:30;2.47;;;1.48;;
33108;SDS011;19481;51.118;6.940;2022-12-29T09:01:31;2.53;;;1.13;;
33108;SDS011;19481;51.118;6.940;2022-12-29T09:06:37;1.05;;;1.00;;
33108;SDS011;19481;51.118;6.940;2022-12-29T09:11:39;2.60;;;1.00;;
33108;SDS011;19481;51.118;6.940;2022-12-29T09:16:41;3.60;;;1.08;;
33108;SDS011;19481;51.118;6.940;2022-12-29T09:22:01;3.50;;;0.90;;
33108;SDS011;19481;51.118;6.940;2022-12-29T09:27:03;2.33;;;1.17;;
33108;SDS011;19481;51.118;6.940;2022-12-29T09:32:05;2.80;;;0.90;;
33108;SDS011;19481;51.118;6.940;2022-12-29T09:37:08;3.40;;;1.10;;
33108;SDS011;19481;51.118;6.940;2022-12-29T09:42:12;1.55;;;1.02;;
33108;SDS011;19481;51.118;6.940;2022-12-29T09:47:19;3.28;;;0.90;;
33108;SDS011;19481;51.118;6.940;2022-12-29T09:52:23;3.97;;;1.17;;
33108;SDS011;19481;51.118;6.940;2022-12-29T09:57:42;6.35;;;0.90;;
33108;SDS011;19481;51.118;6.940;2022-12-29T10:02:48;3.20;;;1.08;;
33108;SDS011;19481;51.118;6.940;2022-12-29T10:07:57;2.00;;;0.93;;
33108;SDS011;19481;51.118;6.940;2022-12-29T10:13:13;1.75;;;0.98;;
33108;SDS011;19481;51.118;6.940;2022-12-29T10:18:32;1.15;;;0.90;;
33108;SDS011;19481;51.118;6.940;2022-12-29T10:23:52;2.60;;;1.10;;
33108;SDS011;19481;51.118;6.940;2022-12-29T10:28:56;4.20;;;1.00;;
33108;SDS011;19481;51.118;6.940;2022-12-29T10:34:05;3.70;;;1.13;;
33108;SDS011;19481;51.118;6.940;2022-12-29T10:39:19;4.13;;;1.08;;
33108;SDS011;19481;51.118;6.940;2022-12-29T11:21:00;3.65;;;1.20;;
33108;SDS011;19481;51.118;6.940;2022-12-29T11:26:14;6.97;;;1.08;;
33108;SDS011;19481;51.118;6.940;2022-12-29T11:31:18;3.35;;;1.10;;
33108;SDS011;19481;51.118;6.940;2022-12-29T11:36:24;4.50;;;0.95;;
33108;SDS011;19481;51.118;6.940;2022-12-29T11:41:26;3.83;;;1.10;;
33108;SDS011;19481;51.118;6.940;2022-12-29T11:46:31;4.82;;;0.90;;
33108;SDS011;19481;51.118;6.940;2022-12-29T11:51:37;6.43;;;1.38;;
33108;SDS011;19481;51.118;6.940;2022-12-29T11:56:48;3.08;;;1.02;;
33108;SDS011;19481;51.118;6.940;2022-12-29T12:01:51;3.92;;;1.00;;
33108;SDS011;19481;51.118;6.940;2022-12-29T12:06:56;12.85;;;1.05;;
33108;SDS011;19481;51.118;6.940;2022-12-29T12:12:01;3.05;;;0.90;;
33108;SDS011;19481;51.118;6.940;2022-12-29T12:17:04;4.32;;;1.23;;
33108;SDS011;19481;51.118;6.940;2022-12-29T12:22:15;4.72;;;0.90;;
33108;SDS011;19481;51.118;6.940;2022-12-29T12:27:24;2.17;;;1.27;;
33108;SDS011;19481;51.118;6.940;2022-12-29T12:32:33;2.63;;;1.10;;
33108;SDS011;19481;51.118;6.940;2022-12-29T12:37:47;5.45;;;1.00;;
33108;SDS011;19481;51.118;6.940;2022-12-29T12:43:04;6.85;;;1.30;;
33108;SDS011;19481;51.118;6.940;2022-12-29T12:48:32;4.07;;;1.33;;
33108;SDS011;19481;51.118;6.940;2022-12-29T12:53:53;10.73;;;1.40;;
33108;SDS011;19481;51.118;6.940;2022-12-29T12:59:06;4.32;;;1.02;;
33108;SDS011;19481;51.118;6.940;2022-12-29T13:09:50;2.10;;;1.08;;
33108;SDS011;19481;51.118;6.940;2022-12-29T13:15:03;3.53;;;0.90;;
33108;SDS011;19481;51.118;6.940;2022-12-29T13:20:20;4.60;;;0.80;;
33108;SDS011;19481;51.118;6.940;2022-12-29T13:25:34;4.07;;;1.02;;
33108;SDS011;19481;51.118;6.940;2022-12-29T13:30:43;4.28;;;1.15;;
33108;SDS011;19481;51.118;6.940;2022-12-29T13:35:55;3.70;;;0.80;;
33108;SDS011;19481;51.118;6.940;2022-12-29T13:41:03;3.78;;;1.00;;
33108;SDS011;19481;51.118;6.940;2022-12-29T13:46:09;3.28;;;1.40;;
33108;SDS011;19481;51.118;6.940;2022-12-29T13:51:13;2.42;;;0.70;;
33108;SDS011;19481;51.118;6.940;2022-12-29T13:56:19;6.40;;;1.10;;
33108;SDS011;19481;51.118;6.940;2022-12-29T14:01:27;5.47;;;1.17;;
33108;SDS011;19481;51.118;6.940;2022-12-29T14:06:32;9.43;;;1.08;;
33108;SDS011;19481;51.118;6.940;2022-12-29T14:11:41;2.38;;;1.02;;
33108;SDS011;19481;51.118;6.940;2022-12-29T14:16:44;2.53;;;1.00;;
33108;SDS011;19481;51.118;6.940;2022-12-29T14:21:50;4.47;;;0.80;;
33108;SDS011;19481;51.118;6.940;2022-12-29T14:26:55;3.92;;;0.80;;
33108;SDS011;19481;51.118;6.940;2022-12-29T14:31:56;6.65;;;1.08;;
33108;SDS011;19481;51.118;6.940;2022-12-29T14:36:58;3.08;;;0.90;;
33108;SDS011;19481;51.118;6.940;2022-12-29T14:42:04;3.67;;;1.02;;
33108;SDS011;19481;51.118;6.940;2022-12-29T14:47:07;6.45;;;1.00;;
33108;SDS011;19481;51.118;6.940;2022-12-29T14:52:13;3.72;;;1.05;;
33108;SDS011;19481;51.118;6.940;2022-12-29T14:57:30;3.40;;;0.90;;
33108;SDS011;19481;51.118;6.940;2022-12-29T15:02:36;3.30;;;0.90;;
33108;SDS011;19481;51.118;6.940;2022-12-29T15:07:41;3.78;;;0.93;;
33108;SDS011;19481;51.118;6.940;2022-12-29T15:12:45;3.80;;;0.80;;
33108;SDS011;19481;51.118;6.940;2022-12-29T15:17:52;4.45;;;1.00;;
33108;SDS011;19481;51.118;6.940;2022-12-29T15:22:55;3.08;;;0.85;;
33108;SDS011;19481;51.118;6.940;2022-12-29T15:28:01;1.67;;;0.98;;
